Time;durP1;ratioP1;P1;durP2;ratioP2;P2;SDS_P1;SDS_P2;PMS_P1;PMS_P2;Temp;Humidity;BMP_temperature;BMP_pressure;BME280_temperature;BME280_humidity;BME280_pressure;Samples;Min_cycle;Max_cycle;Signal;HPM_P1;HPM_P2
2022/03/16 00:02:19;;;;;;;60.00;31.77;;;5.90;99.90;;;;;;4972128;28;20047;-58
2022/03/16 00:04:49;;;;;;;58.10;30.75;;;5.90;99.90;;;;;;4972108;28;20055;-59
2022/03/16 00:07:16;;;;;;;60.10;34.63;;;5.80;99.90;;;;;;4972299;28;20042;-58
2022/03/16 00:09:42;;;;;;;63.22;34.58;;;5.80;99.90;;;;;;4955100;28;20370;-59
2022/03/16 00:12:08;;;;;;;62.42;33.45;;;5.80;99.90;;;;;;4971249;28;20145;-58
2022/03/16 00:14:33;;;;;;;66.60;32.78;;;5.70;99.90;;;;;;4972087;28;20069;-58
2022/03/16 00:16:59;;;;;;;63.20;33.90;;;;;;;;;;4972165;28;20074;-59
2022/03/16 00:19:25;;;;;;;80.07;34.88;;;5.70;99.90;;;;;;4971799;28;20515;-59
2022/03/16 00:21:50;;;;;;;64.70;33.88;;;5.60;99.90;;;;;;4972079;28;20097;-58
2022/03/16 00:24:16;;;;;;;69.20;36.08;;;5.80;99.90;;;;;;4954673;28;20062;-59
2022/03/16 00:26:41;;;;;;;74.32;36.30;;;5.90;99.90;;;;;;4972039;28;20039;-58
2022/03/16 00:29:07;;;;;;;70.03;35.63;;;5.70;99.90;;;;;;4972093;28;20500;-58
2022/03/16 00:31:34;;;;;;;65.22;33.45;;;5.60;99.90;;;;;;4971675;28;20125;-58
2022/03/16 00:34:00;;;;;;;70.60;36.03;;;5.50;99.90;;;;;;4971766;28;20081;-58
2022/03/16 00:36:26;;;;;;;65.40;33.85;;;5.50;99.90;;;;;;4971878;28;20058;-59
2022/03/16 00:38:51;;;;;;;63.00;33.97;;;5.60;99.90;;;;;;4971830;28;20042;-58
2022/03/16 00:41:18;;;;;;;70.53;36.92;;;5.60;99.90;;;;;;4971848;28;20054;-59
2022/03/16 00:43:44;;;;;;;72.30;35.75;;;5.80;99.90;;;;;;4971737;28;20047;-59
2022/03/16 00:46:09;;;;;;;73.32;36.80;;;5.70;99.90;;;;;;4971517;28;20105;-59
2022/03/16 00:48:35;;;;;;;65.60;35.90;;;5.70;99.90;;;;;;4971549;28;20038;-59
2022/03/16 00:51:01;;;;;;;64.95;35.42;;;5.70;99.90;;;;;;4971360;28;20038;-59
2022/03/16 00:53:27;;;;;;;69.75;34.88;;;5.60;99.90;;;;;;4971546;28;20488;-59
2022/03/16 00:55:52;;;;;;;65.38;36.90;;;5.60;99.90;;;;;;4971641;28;20092;-59
2022/03/16 00:58:18;;;;;;;67.07;36.65;;;5.40;99.90;;;;;;4971435;28;20046;-59
2022/03/16 01:00:43;;;;;;;71.28;37.83;;;5.70;99.90;;;;;;4971343;28;20050;-55
2022/03/16 01:03:09;;;;;;;75.15;36.97;;;5.60;99.90;;;;;;4953968;28;20046;-56
2022/03/16 01:05:35;;;;;;;68.03;36.42;;;5.50;99.90;;;;;;4953998;28;20488;-56
2022/03/16 01:08:00;;;;;;;49.45;29.02;;;5.60;99.90;;;;;;4971414;28;20047;-56
2022/03/16 01:10:26;;;;;;;47.92;26.38;;;5.30;99.90;;;;;;4953997;28;20049;-56
2022/03/16 01:12:53;;;;;;;45.92;26.52;;;5.20;99.90;;;;;;4953997;28;20177;-56
2022/03/16 01:15:23;;;;;;;48.25;26.48;;;5.10;99.90;;;;;;4953938;28;20050;-56
2022/03/16 01:17:49;;;;;;;41.33;26.58;;;5.10;99.90;;;;;;4971272;28;20054;-56
2022/03/16 01:20:15;;;;;;;51.50;27.75;;;5.00;99.90;;;;;;4971192;28;20053;-57
2022/03/16 01:22:40;;;;;;;47.70;25.15;;;4.90;99.90;;;;;;4954758;28;20042;-56
2022/03/16 01:25:06;;;;;;;67.80;25.55;;;5.10;99.90;;;;;;4974720;28;20071;-55
2022/03/16 01:27:32;;;;;;;44.72;25.65;;;4.70;99.90;;;;;;4974637;28;20426;-57
2022/03/16 01:29:57;;;;;;;41.75;25.73;;;4.40;99.90;;;;;;4957262;28;20050;-56
2022/03/16 01:32:23;;;;;;;42.00;25.33;;;;;;;;;;4957426;28;20451;-56
2022/03/16 01:34:49;;;;;;;45.00;25.67;;;4.40;99.90;;;;;;4957096;28;20047;-53
2022/03/16 01:37:14;;;;;;;37.97;23.63;;;4.20;99.90;;;;;;4957163;28;20039;-56
2022/03/16 01:39:40;;;;;;;40.92;22.85;;;4.10;99.90;;;;;;4957137;28;20043;-56
2022/03/16 01:42:06;;;;;;;36.08;22.58;;;4.10;99.90;;;;;;4974418;28;20039;-56
2022/03/16 01:44:51;;;;;;;36.17;22.02;;;3.90;99.90;;;;;;4978509;28;20055;-55
2022/03/16 01:47:18;;;;;;;36.25;21.75;;;3.90;99.90;;;;;;4993636;28;20103;-57
2022/03/16 01:49:45;;;;;;;31.55;20.08;;;3.70;99.90;;;;;;4993730;28;20541;-58
2022/03/16 01:52:14;;;;;;;37.00;22.38;;;3.70;99.90;;;;;;4976532;28;20046;-58
2022/03/16 01:54:40;;;;;;;34.70;20.67;;;3.70;99.90;;;;;;4993787;28;20042;-58
2022/03/16 01:57:08;;;;;;;38.53;22.20;;;3.90;99.90;;;;;;4993669;28;20381;-58
2022/03/16 01:59:34;;;;;;;37.63;23.20;;;;;;;;;;4993314;28;20038;-60
2022/03/16 02:01:59;;;;;;;30.73;20.17;;;3.80;99.90;;;;;;4993402;28;20115;-58
2022/03/16 02:04:25;;;;;;;33.05;20.00;;;3.80;99.90;;;;;;4993456;28;20039;-58
2022/03/16 02:06:51;;;;;;;33.45;19.52;;;3.90;99.90;;;;;;4993518;28;20109;-58
2022/03/16 02:09:17;;;;;;;23.83;16.25;;;;;;;;;;4993618;28;20038;-58
2022/03/16 02:11:42;;;;;;;40.75;22.40;;;3.50;99.90;;;;;;4976166;28;20054;-58
2022/03/16 02:14:08;;;;;;;45.70;26.05;;;3.50;99.90;;;;;;4993349;28;20038;-57
2022/03/16 02:16:34;;;;;;;50.97;28.58;;;3.80;99.90;;;;;;4993199;28;20121;-58
2022/03/16 02:19:00;;;;;;;43.05;23.58;;;3.90;99.90;;;;;;4993129;28;20494;-56
2022/03/16 02:21:27;;;;;;;46.53;27.42;;;3.90;99.90;;;;;;4993326;28;20121;-58
2022/03/16 02:23:53;;;;;;;70.93;35.35;;;4.10;99.90;;;;;;4993175;28;20404;-57
2022/03/16 02:26:23;;;;;;;50.25;28.98;;;4.00;99.90;;;;;;4993284;28;20039;-58
2022/03/16 02:28:49;;;;;;;49.55;26.95;;;4.10;99.90;;;;;;4993142;28;20065;-60
2022/03/16 02:31:17;;;;;;;39.15;23.63;;;4.10;99.90;;;;;;4992995;28;20496;-56
2022/03/16 02:33:42;;;;;;;42.92;23.63;;;3.90;99.90;;;;;;4975815;28;20042;-53
2022/03/16 02:36:09;;;;;;;37.60;20.38;;;3.60;99.90;;;;;;4992593;28;20069;-56
2022/03/16 02:38:35;;;;;;;28.42;18.90;;;3.60;99.90;;;;;;4975579;28;20058;-56
2022/03/16 02:41:00;;;;;;;30.60;19.35;;;3.30;99.90;;;;;;4992931;28;20416;-56
2022/03/16 02:43:27;;;;;;;33.85;19.70;;;3.40;99.90;;;;;;4992838;28;20148;-56
2022/03/16 02:45:53;;;;;;;30.42;19.70;;;3.50;99.90;;;;;;4977638;28;20046;-55
2022/03/16 02:48:20;;;;;;;28.20;19.50;;;3.40;99.90;;;;;;4973557;28;20047;-57
2022/03/16 02:50:45;;;;;;;31.30;19.00;;;3.30;99.90;;;;;;4973497;28;20160;-52
2022/03/16 02:53:11;;;;;;;32.42;20.20;;;3.30;99.90;;;;;;4955970;28;20054;-56
2022/03/16 02:55:37;;;;;;;29.13;18.73;;;3.50;99.90;;;;;;4973252;28;20042;-58
2022/03/16 02:58:03;;;;;;;24.40;16.60;;;3.40;99.90;;;;;;4973137;28;20078;-59
2022/03/16 03:00:28;;;;;;;23.92;16.42;;;3.40;99.90;;;;;;4973130;28;20065;-60
2022/03/16 03:02:54;;;;;;;28.23;18.80;;;3.40;99.90;;;;;;4973084;28;20100;-61
2022/03/16 03:05:21;;;;;;;28.85;19.40;;;3.40;99.90;;;;;;4973353;28;20034;-61
2022/03/16 03:07:46;;;;;;;24.98;17.05;;;3.30;99.90;;;;;;4973217;28;20039;-60
2022/03/16 03:10:12;;;;;;;27.13;16.63;;;3.40;99.90;;;;;;4973114;28;20512;-61
2022/03/16 03:12:37;;;;;;;23.48;16.73;;;3.20;99.90;;;;;;4972986;28;20039;-60
2022/03/16 03:15:04;;;;;;;23.52;15.82;;;3.20;99.90;;;;;;4955786;28;20046;-60
2022/03/16 03:17:29;;;;;;;25.38;15.82;;;3.00;99.90;;;;;;4973068;28;20046;-60
2022/03/16 03:19:55;;;;;;;25.52;16.50;;;;;;;;;;4966689;28;20406;-60
2022/03/16 03:22:26;;;;;;;23.92;15.15;;;3.10;99.90;;;;;;4972890;28;20042;-60
2022/03/16 03:24:52;;;;;;;21.48;15.45;;;2.80;99.90;;;;;;4972908;28;20047;-61
2022/03/16 03:27:17;;;;;;;27.60;18.08;;;2.80;99.90;;;;;;4972814;28;20049;-60
2022/03/16 03:29:43;;;;;;;46.42;27.25;;;3.10;99.90;;;;;;4972818;28;20050;-61
2022/03/16 03:32:08;;;;;;;43.67;24.77;;;3.30;99.90;;;;;;4972770;28;20050;-60
2022/03/16 03:34:34;;;;;;;35.00;21.38;;;3.70;99.90;;;;;;4972649;28;20053;-61
2022/03/16 03:36:59;;;;;;;41.13;22.45;;;3.80;99.90;;;;;;4972799;28;20039;-60
2022/03/16 03:39:25;;;;;;;60.60;32.10;;;3.40;99.90;;;;;;4972698;28;20042;-60
2022/03/16 03:41:50;;;;;;;37.65;22.77;;;3.40;99.90;;;;;;4972581;28;20103;-60
2022/03/16 03:44:16;;;;;;;54.35;30.45;;;3.60;99.90;;;;;;4955066;28;20138;-60
2022/03/16 03:46:41;;;;;;;62.15;32.00;;;3.60;99.90;;;;;;4971540;28;20042;-60
2022/03/16 03:49:07;;;;;;;57.50;30.40;;;3.70;99.90;;;;;;4972645;28;20034;-58
2022/03/16 03:51:33;;;;;;;75.47;36.80;;;3.60;99.90;;;;;;4955014;28;20496;-58
2022/03/16 03:53:58;;;;;;;54.60;31.33;;;3.60;99.90;;;;;;4972560;28;20042;-58
2022/03/16 03:56:24;;;;;;;45.83;25.83;;;3.60;99.90;;;;;;4972402;28;20417;-58
2022/03/16 03:58:49;;;;;;;35.10;21.25;;;3.40;99.90;;;;;;4972217;28;20449;-57
2022/03/16 04:01:17;;;;;;;28.30;18.75;;;3.40;99.90;;;;;;4972189;28;20042;-58
2022/03/16 04:03:43;;;;;;;31.67;19.63;;;3.00;99.90;;;;;;4972501;28;20092;-57
2022/03/16 04:06:10;;;;;;;35.78;19.30;;;2.90;99.90;;;;;;4972364;28;20046;-57
2022/03/16 04:08:36;;;;;;;32.28;19.85;;;2.70;99.90;;;;;;4954875;28;20053;-58
2022/03/16 04:11:02;;;;;;;29.02;18.05;;;2.60;99.90;;;;;;4972073;28;20043;-58
2022/03/16 04:13:27;;;;;;;30.65;18.15;;;2.70;99.90;;;;;;4972060;28;20054;-57
2022/03/16 04:15:53;;;;;;;33.63;20.85;;;2.60;99.90;;;;;;4972331;28;20043;-57
2022/03/16 04:18:19;;;;;;;40.40;24.40;;;2.90;99.90;;;;;;4972183;28;20038;-55
2022/03/16 04:20:44;;;;;;;34.83;21.42;;;2.80;99.90;;;;;;4971993;28;20618;-58
2022/03/16 04:23:10;;;;;;;64.35;33.95;;;3.10;99.90;;;;;;4972052;28;20564;-60
2022/03/16 04:25:35;;;;;;;53.65;29.80;;;3.20;99.90;;;;;;4971917;28;20100;-58
2022/03/16 04:28:02;;;;;;;66.63;35.47;;;3.40;99.90;;;;;;4971808;28;20042;-60
2022/03/16 04:30:27;;;;;;;64.35;33.42;;;3.30;99.90;;;;;;4971820;28;20515;-58
2022/03/16 04:32:53;;;;;;;48.58;27.27;;;3.40;99.90;;;;;;4954565;28;20039;-57
2022/03/16 04:35:20;;;;;;;38.50;23.20;;;3.10;99.90;;;;;;4971893;28;20071;-58
2022/03/16 04:37:47;;;;;;;30.83;20.52;;;3.20;99.90;;;;;;4971724;28;20118;-57
2022/03/16 04:40:13;;;;;;;34.28;21.40;;;2.80;99.90;;;;;;4971722;28;20126;-58
2022/03/16 04:42:39;;;;;;;22.85;16.13;;;;;;;;;;4971713;28;20435;-59
2022/03/16 04:45:05;;;;;;;22.08;15.95;;;2.50;99.90;;;;;;4971534;28;20073;-58
2022/03/16 04:47:30;;;;;;;22.98;16.52;;;2.40;99.90;;;;;;4971835;28;20035;-58
2022/03/16 04:49:56;;;;;;;23.27;16.27;;;2.40;99.90;;;;;;4971715;28;20420;-57
2022/03/16 04:52:22;;;;;;;25.70;17.77;;;2.40;99.90;;;;;;4971449;28;20039;-57
2022/03/16 04:54:48;;;;;;;24.30;16.90;;;2.50;99.90;;;;;;4971693;28;20031;-55
2022/03/16 04:57:13;;;;;;;33.88;20.17;;;2.30;99.90;;;;;;4971491;28;20034;-55
2022/03/16 04:59:39;;;;;;;46.53;25.63;;;2.60;99.90;;;;;;4971411;28;20066;-60
2022/03/16 05:02:05;;;;;;;41.50;23.90;;;2.70;99.90;;;;;;4971315;28;20511;-56
2022/03/16 05:04:30;;;;;;;47.50;27.80;;;2.70;99.90;;;;;;4954020;28;20051;-60
2022/03/16 05:06:56;;;;;;;62.70;30.25;;;2.90;99.90;;;;;;4971586;28;20090;-60
2022/03/16 05:09:22;;;;;;;57.45;30.75;;;2.90;99.90;;;;;;4971291;28;20070;-60
2022/03/16 05:11:47;;;;;;;59.47;30.35;;;3.10;99.90;;;;;;4971317;28;20043;-60
2022/03/16 05:14:13;;;;;;;56.85;30.17;;;3.40;99.90;;;;;;4971199;28;20132;-60
2022/03/16 05:16:39;;;;;;;58.85;32.78;;;3.40;99.90;;;;;;4971470;28;20051;-60
2022/03/16 05:19:04;;;;;;;74.03;36.30;;;3.40;99.90;;;;;;4936118;28;20477;-60
2022/03/16 05:21:30;;;;;;;68.70;35.70;;;3.40;99.90;;;;;;4932670;28;20047;-60
2022/03/16 05:23:56;;;;;;;66.35;34.38;;;3.40;99.90;;;;;;4953135;28;20035;-60
2022/03/16 05:26:21;;;;;;;66.90;36.47;;;3.50;99.90;;;;;;4950808;28;20040;-60
2022/03/16 05:28:47;;;;;;;72.40;35.38;;;3.60;99.90;;;;;;4950741;28;20050;-61
2022/03/16 05:31:13;;;;;;;68.65;34.17;;;;;;;;;;4922441;28;20050;-61
2022/03/16 05:33:38;;;;;;;75.57;36.20;;;3.60;99.90;;;;;;4950851;28;20047;-61
2022/03/16 05:36:04;;;;;;;64.13;36.05;;;3.70;99.90;;;;;;4933126;28;20043;-61
2022/03/16 05:38:31;;;;;;;69.63;38.47;;;;;;;;;;4933390;28;20138;-61
2022/03/16 05:40:56;;;;;;;66.18;37.42;;;3.60;99.90;;;;;;4933706;28;20063;-61
2022/03/16 05:43:22;;;;;;;67.32;36.55;;;3.70;99.90;;;;;;4950584;28;20485;-61
2022/03/16 05:45:49;;;;;;;69.25;37.03;;;3.70;99.90;;;;;;4952345;28;20035;-61
2022/03/16 05:48:15;;;;;;;67.63;37.05;;;3.70;99.90;;;;;;4950481;28;20405;-60
2022/03/16 05:50:44;;;;;;;66.00;35.67;;;3.90;99.90;;;;;;4950509;28;20036;-60
2022/03/16 05:53:10;;;;;;;61.97;35.08;;;4.00;99.90;;;;;;4950528;28;20035;-59
2022/03/16 05:55:35;;;;;;;68.10;36.67;;;4.00;99.90;;;;;;4949916;28;20066;-63
2022/03/16 05:58:01;;;;;;;66.93;38.15;;;4.00;99.90;;;;;;4933431;28;20474;-63
2022/03/16 06:00:27;;;;;;;71.70;36.28;;;4.10;99.90;;;;;;4954363;28;20036;-63
2022/03/16 06:02:53;;;;;;;70.07;37.58;;;4.00;99.90;;;;;;4960733;28;20125;-63
2022/03/16 06:05:19;;;;;;;73.97;37.38;;;4.00;99.90;;;;;;4934246;29;20055;-63
2022/03/16 06:07:45;;;;;;;68.72;37.78;;;4.20;99.90;;;;;;4950505;28;20463;-62
2022/03/16 06:10:15;;;;;;;67.53;37.50;;;4.10;99.90;;;;;;4935237;28;20051;-62
2022/03/16 06:12:55;;;;;;;69.57;38.38;;;4.10;99.90;;;;;;4954792;29;20039;-61
2022/03/16 06:15:22;;;;;;;68.82;37.85;;;4.10;99.90;;;;;;4954520;29;20405;-61
2022/03/16 06:17:47;;;;;;;69.95;36.85;;;4.10;99.90;;;;;;4954536;29;20459;-60
2022/03/16 06:20:13;;;;;;;62.75;36.45;;;4.10;99.90;;;;;;4954466;29;20101;-61
2022/03/16 06:22:39;;;;;;;65.75;36.10;;;4.10;99.90;;;;;;4953921;28;20042;-61
2022/03/16 06:25:05;;;;;;;63.80;36.15;;;4.10;99.90;;;;;;4937238;29;20541;-60
2022/03/16 06:27:31;;;;;;;58.17;33.85;;;;;;;;;;4954332;29;20047;-61
2022/03/16 06:29:56;;;;;;;68.85;35.38;;;4.10;99.90;;;;;;4936637;29;20123;-61
2022/03/16 06:32:22;;;;;;;55.58;36.20;;;4.30;99.90;;;;;;4954368;29;20118;-61
2022/03/16 06:34:47;;;;;;;63.42;35.03;;;4.10;99.90;;;;;;4954227;29;20114;-60
2022/03/16 06:37:13;;;;;;;63.90;32.88;;;4.00;99.90;;;;;;4954264;29;20046;-61
2022/03/16 06:39:39;;;;;;;56.78;32.63;;;4.20;99.90;;;;;;4952591;28;20047;-61
2022/03/16 06:42:05;;;;;;;54.13;32.67;;;4.10;99.90;;;;;;4935809;28;20035;-62
2022/03/16 06:44:31;;;;;;;61.45;34.67;;;4.10;99.90;;;;;;4937864;28;20118;-62
2022/03/16 06:46:56;;;;;;;61.03;35.05;;;4.10;99.90;;;;;;4954119;29;20138;-62
2022/03/16 06:49:22;;;;;;;59.28;35.30;;;4.10;99.90;;;;;;4953683;29;20043;-61
2022/03/16 06:51:47;;;;;;;55.70;33.70;;;4.20;99.90;;;;;;4953453;28;20035;-61
2022/03/16 06:54:13;;;;;;;59.83;34.83;;;4.10;99.90;;;;;;4936326;29;20084;-60
2022/03/16 06:56:38;;;;;;;61.17;35.60;;;4.20;99.90;;;;;;4953604;29;20039;-62
2022/03/16 06:59:04;;;;;;;60.35;35.83;;;4.30;99.90;;;;;;4953587;28;20126;-62
2022/03/16 07:01:30;;;;;;;59.03;35.15;;;4.30;99.90;;;;;;4953765;29;20624;-63
2022/03/16 07:03:56;;;;;;;56.70;35.22;;;;;;;;;;4953965;29;20048;-62
2022/03/16 07:06:22;;;;;;;53.88;34.45;;;;;;;;;;4955163;28;20398;-61
2022/03/16 07:08:49;;;;;;;69.95;41.65;;;4.60;99.90;;;;;;4966753;28;20053;-61
2022/03/16 07:11:16;;;;;;;65.10;38.63;;;4.70;99.90;;;;;;4943472;28;20101;-60
2022/03/16 07:13:43;;;;;;;66.80;37.75;;;4.70;99.90;;;;;;5002770;28;20043;-61
2022/03/16 07:16:08;;;;;;;65.60;40.25;;;5.00;99.90;;;;;;5038534;28;20059;-62
2022/03/16 07:18:34;;;;;;;69.80;40.28;;;;;;;;;;5068648;28;20494;-63
2022/03/16 07:21:00;;;;;;;62.85;39.20;;;5.30;99.90;;;;;;5049559;28;20115;-62
2022/03/16 07:23:26;;;;;;;64.15;38.88;;;5.60;99.90;;;;;;5045004;28;20048;-60
2022/03/16 07:25:52;;;;;;;59.40;37.97;;;6.10;99.90;;;;;;4974368;28;20130;-61
2022/03/16 07:28:19;;;;;;;57.17;37.22;;;6.10;99.90;;;;;;4981640;28;20053;-62
2022/03/16 07:30:45;;;;;;;57.80;34.45;;;;;;;;;;4969760;28;20522;-62
2022/03/16 07:33:11;;;;;;;58.08;34.53;;;6.40;99.90;;;;;;4959544;28;20082;-64
2022/03/16 07:35:38;;;;;;;53.60;34.85;;;;;;;;;;4939563;28;20093;-62
2022/03/16 07:38:05;;;;;;;56.90;35.88;;;6.50;99.90;;;;;;4935183;28;20118;-61
2022/03/16 07:40:33;;;;;;;53.95;35.88;;;;;;;;;;4973708;28;20126;-63
2022/03/16 07:42:59;;;;;;;47.95;33.00;;;;;;;;;;4999648;28;20046;-63
2022/03/16 07:45:25;;;;;;;53.92;35.35;;;;;;;;;;4963719;28;20399;-62
2022/03/16 07:47:56;;;;;;;53.80;34.90;;;;;;;;;;4989812;28;20466;-63
2022/03/16 07:50:22;;;;;;;45.60;31.08;;;;;;;;;;4984774;28;20595;-63
2022/03/16 07:52:48;;;;;;;52.38;32.58;;;7.30;99.90;;;;;;4974132;28;20038;-63
2022/03/16 07:55:14;;;;;;;45.83;31.48;;;;;;;;;;4995779;28;20448;-62
2022/03/16 07:57:41;;;;;;;45.05;27.83;;;7.60;99.90;;;;;;4998870;28;20145;-62
2022/03/16 08:00:10;;;;;;;43.28;30.15;;;7.80;99.90;;;;;;4993983;28;20066;-62
2022/03/16 08:02:36;;;;;;;37.90;26.55;;;;;;;;;;4998725;28;20071;-62
2022/03/16 08:05:02;;;;;;;40.88;25.42;;;;;;;;;;5008129;28;20052;-63
2022/03/16 08:07:29;;;;;;;41.88;26.48;;;8.20;99.90;;;;;;5005582;28;20385;-63
2022/03/16 08:09:55;;;;;;;39.33;24.08;;;;;;;;;;4994165;28;20058;-63
2022/03/16 08:12:21;;;;;;;34.05;20.52;;;9.00;99.90;;;;;;4991085;28;20414;-64
2022/03/16 08:14:47;;;;;;;32.78;22.17;;;;;;;;;;5000197;28;20048;-62
2022/03/16 08:17:13;;;;;;;30.33;22.00;;;;;;;;;;5003296;28;20220;-62
2022/03/16 08:19:39;;;;;;;31.70;20.65;;;;;;;;;;4999140;28;20046;-63
2022/03/16 08:22:05;;;;;;;27.92;19.70;;;;;;;;;;4992670;28;20314;-64
2022/03/16 08:24:31;;;;;;;25.70;19.58;;;;;;;;;;4969043;28;20508;-64
2022/03/16 08:26:56;;;;;;;28.23;18.17;;;11.90;99.90;;;;;;4980257;28;20041;-64
2022/03/16 08:29:22;;;;;;;26.52;19.30;;;;;;;;;;5001886;28;20468;-64
2022/03/16 08:31:48;;;;;;;28.60;18.70;;;12.70;99.90;;;;;;5003919;28;20502;-63
2022/03/16 08:34:13;;;;;;;25.15;18.08;;;12.70;99.90;;;;;;4998266;28;20048;-63
2022/03/16 08:36:39;;;;;;;25.63;15.75;;;12.60;99.90;;;;;;4994060;28;20053;-64
2022/03/16 08:39:06;;;;;;;23.20;16.05;;;12.30;99.90;;;;;;5007171;28;20041;-65
2022/03/16 08:41:33;;;;;;;26.55;18.27;;;12.20;99.90;;;;;;4980338;28;20144;-64
2022/03/16 08:43:59;;;;;;;26.45;18.45;;;;;;;;;;4985868;28;20135;-63
2022/03/16 08:46:25;;;;;;;24.70;15.93;;;12.30;99.90;;;;;;5002197;28;20103;-63
2022/03/16 08:48:50;;;;;;;20.05;15.07;;;13.20;99.90;;;;;;4991129;28;20176;-66
2022/03/16 08:51:16;;;;;;;21.92;14.35;;;13.10;99.90;;;;;;5011032;28;20460;-65
2022/03/16 08:53:42;;;;;;;23.02;14.35;;;;;;;;;;4975276;28;20428;-64
2022/03/16 08:56:09;;;;;;;25.08;16.70;;;12.90;99.90;;;;;;5004309;28;20053;-64
2022/03/16 08:58:35;;;;;;;22.17;14.55;;;13.00;99.90;;;;;;4975612;28;20133;-64
2022/03/16 09:01:00;;;;;;;21.17;14.98;;;13.10;99.90;;;;;;4997210;28;20511;-64
2022/03/16 09:03:27;;;;;;;21.17;14.93;;;;;;;;;;4985464;28;20409;-64
2022/03/16 09:05:52;;;;;;;21.73;14.52;;;13.50;99.90;;;;;;5006752;28;20060;-64
2022/03/16 09:08:18;;;;;;;22.02;15.15;;;13.60;99.90;;;;;;4993388;28;20671;-64
2022/03/16 09:10:45;;;;;;;23.42;14.52;;;13.80;99.90;;;;;;5000623;28;20650;-63
2022/03/16 09:13:10;;;;;;;22.52;15.02;;;14.40;99.90;;;;;;5004474;28;20485;-64
2022/03/16 09:15:36;;;;;;;23.35;15.02;;;14.60;99.90;;;;;;5001674;28;20048;-65
2022/03/16 09:18:02;;;;;;;21.55;15.80;;;15.00;99.90;;;;;;4996999;28;20399;-65
2022/03/16 09:20:28;;;;;;;22.15;14.30;;;15.40;99.90;;;;;;4982612;28;20109;-64
2022/03/16 09:22:53;;;;;;;24.60;15.05;;;16.10;99.90;;;;;;4997109;28;20090;-63
2022/03/16 09:25:22;;;;;;;24.50;14.70;;;17.00;99.90;;;;;;5001976;28;20050;-68
2022/03/16 09:27:48;;;;;;;22.67;13.52;;;17.80;99.90;;;;;;4999113;28;20051;-63
2022/03/16 09:30:13;;;;;;;21.70;15.07;;;18.00;99.90;;;;;;4980878;28;20050;-63
2022/03/16 09:32:39;;;;;;;22.13;14.07;;;18.30;99.90;;;;;;4981797;28;20542;-64
2022/03/16 09:35:06;;;;;;;21.15;13.57;;;18.40;99.90;;;;;;4999012;28;20082;-64
2022/03/16 09:37:32;;;;;;;18.02;11.05;;;18.70;99.90;;;;;;4984262;28;20051;-63
2022/03/16 09:39:58;;;;;;;17.38;12.60;;;18.70;99.90;;;;;;4980170;28;20059;-63
2022/03/16 09:42:25;;;;;;;17.75;12.02;;;18.70;99.90;;;;;;5009629;28;20044;-62
2022/03/16 09:44:53;;;;;;;16.98;10.38;;;19.10;99.90;;;;;;5010972;28;20040;-64
2022/03/16 09:47:22;;;;;;;19.02;13.15;;;19.30;99.90;;;;;;5006442;28;20047;-64
2022/03/16 09:49:48;;;;;;;19.60;12.98;;;20.00;99.90;;;;;;4996034;28;20102;-61
2022/03/16 09:52:14;;;;;;;12.63;10.18;;;19.90;99.90;;;;;;5007562;28;20048;-63
2022/03/16 09:54:40;;;;;;;17.08;10.85;;;20.00;99.90;;;;;;5012049;28;20123;-62
2022/03/16 09:57:06;;;;;;;15.88;11.43;;;19.90;99.90;;;;;;4955236;28;20065;-64
2022/03/16 09:59:31;;;;;;;17.48;12.43;;;20.00;99.90;;;;;;4993796;28;20078;-63
2022/03/16 10:02:07;;;;;;;17.25;10.90;;;20.30;99.90;;;;;;4987404;28;20146;-62
2022/03/16 10:04:34;;;;;;;15.68;11.27;;;20.50;99.80;;;;;;5003200;28;20051;-61
2022/03/16 10:07:00;;;;;;;17.50;11.30;;;19.90;98.40;;;;;;4985071;28;20055;-62
2022/03/16 10:15:18;;;;;;;15.55;11.00;;;19.70;98.10;;;;;;4966980;28;20055;-62
2022/03/16 10:17:48;;;;;;;18.52;11.43;;;19.10;98.00;;;;;;5002729;28;20064;-62
2022/03/16 10:20:22;;;;;;;16.02;9.73;;;18.50;98.50;;;;;;5006308;28;20051;-62
2022/03/16 10:23:04;;;;;;;15.55;10.15;;;18.40;97.50;;;;;;4981364;28;20052;-62
2022/03/16 10:25:42;;;;;;;14.98;10.90;;;18.20;98.10;;;;;;4993013;28;20044;-63
2022/03/16 10:28:12;;;;;;;15.93;11.13;;;18.10;98.70;;;;;;4969899;28;20058;-63
2022/03/16 10:30:49;;;;;;;15.15;10.07;;;18.00;98.60;;;;;;4974923;28;21189;-63
2022/03/16 10:33:16;;;;;;;16.60;10.13;;;17.40;97.90;;;;;;5003374;28;20137;-63
2022/03/16 10:36:04;;;;;;;22.08;10.23;;;16.50;99.00;;;;;;4988468;28;20064;-59
2022/03/16 10:38:50;;;;;;;18.20;10.90;;;15.70;99.90;;;;;;4976885;28;20055;-61
2022/03/16 10:47:18;;;;;;;15.57;10.13;;;15.00;99.90;;;;;;5001153;28;20504;-60
2022/03/16 10:49:45;;;;;;;17.35;10.93;;;15.20;99.90;;;;;;4996648;28;20082;-63
2022/03/16 10:52:17;;;;;;;14.70;9.77;;;15.00;99.90;;;;;;4990719;28;20084;-65
2022/03/16 10:54:44;;;;;;;16.38;8.80;;;14.70;99.90;;;;;;5007202;28;20050;-65
2022/03/16 10:57:13;;;;;;;16.48;10.13;;;14.60;99.90;;;;;;4999469;28;20405;-64
2022/03/16 10:59:42;;;;;;;17.33;10.15;;;14.50;99.90;;;;;;4987192;28;20071;-64
2022/03/16 11:02:12;;;;;;;16.27;10.10;;;13.80;99.90;;;;;;4978254;28;20062;-66
2022/03/16 11:04:39;;;;;;;14.68;9.13;;;14.30;99.90;;;;;;5004675;28;20052;-64
2022/03/16 11:07:06;;;;;;;13.30;9.48;;;14.50;99.90;;;;;;5002965;28;20135;-64
2022/03/16 11:09:33;;;;;;;12.88;9.73;;;14.20;99.90;;;;;;4996830;28;20090;-64
2022/03/16 11:14:47;;;;;;;;;;;14.00;99.90;;;;;;4998573;28;20084;-62
2022/03/16 11:17:14;;;;;;;13.75;8.73;;;14.30;99.90;;;;;;5008445;28;20005;-63
2022/03/16 11:19:44;;;;;;;11.60;8.15;;;14.30;99.90;;;;;;5002747;28;20131;-63
2022/03/16 11:22:25;;;;;;;12.55;9.38;;;14.30;99.90;;;;;;4973212;28;20051;-63
2022/03/16 11:25:02;;;;;;;10.48;7.68;;;14.10;99.90;;;;;;4996864;28;20040;-63
2022/03/16 11:27:52;;;;;;;12.27;8.20;;;14.30;99.90;;;;;;4990005;28;20521;-63
2022/03/16 11:30:30;;;;;;;12.35;6.95;;;14.40;99.90;;;;;;4992945;28;20127;-63
2022/03/16 11:33:08;;;;;;;15.00;8.05;;;14.30;99.90;;;;;;5009321;28;21080;-63
2022/03/16 11:35:36;;;;;;;13.43;8.65;;;14.30;99.90;;;;;;5000115;28;20104;-63
2022/03/16 11:38:11;;;;;;;12.02;7.63;;;14.30;99.90;;;;;;4997692;28;20047;-64
2022/03/16 11:40:39;;;;;;;13.32;8.32;;;14.40;99.90;;;;;;4980404;28;20049;-62
2022/03/16 11:43:04;;;;;;;13.43;9.13;;;14.30;99.90;;;;;;5005962;28;20048;-63
2022/03/16 11:45:37;;;;;;;14.38;8.45;;;14.40;99.90;;;;;;5003311;28;20074;-63
2022/03/16 11:48:31;;;;;;;12.98;8.20;;;14.50;99.90;;;;;;5000918;28;20496;-63
2022/03/16 11:51:07;;;;;;;11.93;7.57;;;14.50;99.90;;;;;;4988467;28;20506;-62
2022/03/16 11:53:48;;;;;;;14.52;8.98;;;14.30;99.90;;;;;;4988471;28;20063;-62
2022/03/16 11:56:24;;;;;;;14.82;8.88;;;14.10;99.90;;;;;;4995297;28;20208;-64
2022/03/16 11:59:02;;;;;;;13.48;9.02;;;14.60;99.90;;;;;;4991672;28;20502;-64
2022/03/16 12:01:29;;;;;;;14.88;9.07;;;14.60;99.90;;;;;;4985109;28;20482;-64
2022/03/16 12:04:08;;;;;;;14.20;10.35;;;14.60;99.90;;;;;;5009182;28;20154;-63
2022/03/16 12:07:12;;;;;;;15.30;9.02;;;14.90;99.90;;;;;;5008124;28;20395;-63
2022/03/16 12:09:49;;;;;;;13.90;8.15;;;15.00;99.90;;;;;;4989517;28;20515;-64
2022/03/16 12:15:09;;;;;;;15.15;10.13;;;14.60;99.90;;;;;;5004988;28;20056;-64
2022/03/16 12:17:35;;;;;;;16.73;9.93;;;14.80;99.90;;;;;;4990361;28;20052;-65
2022/03/16 12:20:15;;;;;;;18.52;10.80;;;14.80;99.90;;;;;;4999199;28;20041;-64
2022/03/16 12:22:59;;;;;;;15.68;10.07;;;15.00;99.90;;;;;;4986737;28;20050;-63
2022/03/16 12:25:27;;;;;;;15.93;10.02;;;14.70;99.90;;;;;;5004905;28;20188;-65
2022/03/16 12:30:50;;;;;;;14.32;9.07;;;15.00;99.90;;;;;;4994229;28;20052;-67
2022/03/16 12:33:22;;;;;;;15.00;9.45;;;14.90;99.90;;;;;;4976891;28;20444;-67
2022/03/16 12:36:04;;;;;;;16.58;9.25;;;14.70;99.90;;;;;;4995079;28;20047;-66
2022/03/16 12:38:32;;;;;;;18.35;9.68;;;15.00;99.90;;;;;;4976880;28;20415;-66
2022/03/16 12:43:43;;;;;;;14.35;8.38;;;14.80;99.90;;;;;;4973003;28;20047;-66
2022/03/16 12:46:16;;;;;;;14.27;7.93;;;15.10;99.90;;;;;;4953296;28;20054;-66
2022/03/16 12:48:48;;;;;;;13.88;7.95;;;15.10;99.90;;;;;;4949516;28;20143;-66
2022/03/16 12:51:18;;;;;;;15.20;8.88;;;15.20;99.90;;;;;;4991943;28;20549;-66
2022/03/16 12:53:44;;;;;;;14.95;8.85;;;15.10;99.90;;;;;;4994695;28;20538;-66
2022/03/16 12:56:19;;;;;;;18.00;10.57;;;15.30;99.90;;;;;;4997935;28;20647;-65
2022/03/16 12:58:55;;;;;;;;;;;15.40;99.90;;;;;;4985477;28;21091;-64
2022/03/16 13:01:21;;;;;;;;;;;15.20;99.90;;;;;;4995005;28;19937;-65
2022/03/16 13:03:48;;;;;;;13.00;8.70;;;15.20;99.90;;;;;;4980991;28;19950;-66
2022/03/16 13:06:18;;;;;;;13.70;8.88;;;15.40;99.90;;;;;;4990124;28;20520;-66
2022/03/16 13:08:52;;;;;;;15.30;8.63;;;15.30;99.90;;;;;;5000200;28;20051;-65
2022/03/16 13:11:26;;;;;;;15.05;9.48;;;15.40;99.90;;;;;;4976663;28;20051;-66